Terminal Aerodrome Forecast
Issued by NWS

Home | Current Version | Previous Version | Text Only | Print | Product List | Glossary On
Versions: 1 2 3 4 5 6 7 8 9 10 11 12
378
FTUS45 KTFX 180520
TAFCTB
TAF
KCTB 180520Z 1806/1906 28022G32KT P6SM FEW080 BKN250
     FM180900 27017G25KT P6SM SCT100 BKN250
     FM190000 23031G45KT P6SM SCT110 BKN250=

USA.gov is the U.S. government's official web portal to all federal, state and local government web resources and services.